createdAt,value
2022-10-25T00:00:53.093Z,4.83
2022-10-25T00:03:19.701Z,5.20
2022-10-25T00:05:46.254Z,24.10
2022-10-25T00:08:12.949Z,8.83
2022-10-25T00:10:39.571Z,4.23
2022-10-25T00:13:06.335Z,3.03
2022-10-25T00:15:33.046Z,5.40
2022-10-25T00:17:59.716Z,6.70
2022-10-25T00:20:26.332Z,4.60
2022-10-25T00:22:52.904Z,3.67
2022-10-25T00:25:19.874Z,6.60
2022-10-25T00:27:59.720Z,3.07
2022-10-25T00:30:29.791Z,8.33
2022-10-25T00:33:00.486Z,7.03
2022-10-25T00:35:28.162Z,5.83
2022-10-25T00:37:54.815Z,5.30
2022-10-25T00:40:21.436Z,3.97
2022-10-25T00:42:48.368Z,3.37
2022-10-25T00:45:28.151Z,5.90
2022-10-25T00:48:12.887Z,3.83
2022-10-25T00:50:49.626Z,6.17
2022-10-25T00:53:25.195Z,4.13
2022-10-25T00:56:03.944Z,3.00
2022-10-25T00:58:35.531Z,6.20
2022-10-25T01:01:06.853Z,11.23
2022-10-25T01:03:35.351Z,6.37
2022-10-25T01:06:05.967Z,7.50
2022-10-25T01:08:33.778Z,2.87
2022-10-25T01:11:00.442Z,4.43
2022-10-25T01:13:27.097Z,4.30
2022-10-25T01:16:10.728Z,3.80
2022-10-25T01:18:49.628Z,3.73
2022-10-25T01:21:25.201Z,2.23
2022-10-25T01:24:19.509Z,3.27
2022-10-25T01:27:23.371Z,4.90
2022-10-25T01:30:03.179Z,2.00
2022-10-25T01:33:02.082Z,4.50
2022-10-25T01:35:57.230Z,3.57
2022-10-25T01:38:26.529Z,3.10
2022-10-25T01:41:03.379Z,7.40
2022-10-25T01:43:42.174Z,3.83
2022-10-25T01:46:18.574Z,3.93
2022-10-25T01:48:48.689Z,4.00
2022-10-25T01:51:17.545Z,4.33
2022-10-25T01:53:49.487Z,7.60
2022-10-25T01:56:42.032Z,5.33
2022-10-25T01:59:50.763Z,3.20
2022-10-25T02:02:25.384Z,5.20
2022-10-25T02:04:58.335Z,2.83
2022-10-25T02:07:34.242Z,6.43
2022-10-25T02:10:07.528Z,2.90
2022-10-25T02:13:13.384Z,3.57
2022-10-25T02:15:44.254Z,2.33
2022-10-25T02:18:16.224Z,3.37
2022-10-25T02:20:46.728Z,2.97
2022-10-25T02:23:15.419Z,2.90
2022-10-25T02:25:42.671Z,3.70
2022-10-25T02:28:15.140Z,5.70
2022-10-25T02:30:44.284Z,3.43
2022-10-25T02:33:11.996Z,4.13
2022-10-25T02:35:39.120Z,8.73
2022-10-25T02:38:07.752Z,4.30
2022-10-25T02:40:36.609Z,3.57
2022-10-25T02:43:17.847Z,2.90
2022-10-25T02:45:47.805Z,4.37
2022-10-25T02:48:17.720Z,5.83
2022-10-25T02:50:44.442Z,3.50
2022-10-25T02:53:11.016Z,4.97
2022-10-25T02:55:38.608Z,5.80
2022-10-25T02:58:05.207Z,9.40
2022-10-25T03:00:31.862Z,7.43
2022-10-25T03:02:58.602Z,3.97
2022-10-25T03:05:25.514Z,4.70
2022-10-25T03:07:52.056Z,3.87
2022-10-25T03:10:18.661Z,6.77
2022-10-25T03:12:45.634Z,1.90
2022-10-25T03:15:12.518Z,13.03
2022-10-25T03:17:39.087Z,4.43
2022-10-25T03:20:06.323Z,4.70
2022-10-25T03:22:32.941Z,4.57
2022-10-25T03:24:59.688Z,5.40
2022-10-25T03:27:26.648Z,3.37
2022-10-25T03:29:53.344Z,6.00
2022-10-25T03:32:19.986Z,3.10
2022-10-25T03:34:46.567Z,4.00
2022-10-25T03:37:13.149Z,2.37
2022-10-25T03:39:39.708Z,7.57
2022-10-25T03:42:06.300Z,3.40
2022-10-25T03:44:32.902Z,3.23
2022-10-25T03:46:59.516Z,4.47
2022-10-25T03:49:26.547Z,4.67
2022-10-25T03:51:57.034Z,5.83
2022-10-25T03:54:29.092Z,4.33
2022-10-25T03:56:56.088Z,5.60
2022-10-25T03:59:22.804Z,4.80
2022-10-25T04:01:49.457Z,3.40
2022-10-25T04:04:16.149Z,4.83
2022-10-25T04:06:42.721Z,4.07
2022-10-25T04:09:09.393Z,6.73
2022-10-25T04:11:36.380Z,6.03
2022-10-25T04:14:03.091Z,2.23
2022-10-25T04:16:29.816Z,5.47
2022-10-25T04:18:57.845Z,4.07
2022-10-25T04:21:25.095Z,2.97
2022-10-25T04:23:52.464Z,3.63
2022-10-25T04:26:20.269Z,3.90
2022-10-25T04:28:52.156Z,2.47
2022-10-25T04:31:18.821Z,3.30
2022-10-25T04:33:49.249Z,3.80
2022-10-25T04:36:16.128Z,3.53
2022-10-25T04:38:42.816Z,5.13
2022-10-25T04:41:10.385Z,5.00
2022-10-25T04:43:36.984Z,4.57
2022-10-25T04:46:03.922Z,3.27
2022-10-25T04:48:30.586Z,3.40
2022-10-25T04:51:00.642Z,4.03
2022-10-25T04:53:27.575Z,2.87
2022-10-25T04:56:04.060Z,9.77
2022-10-25T04:58:31.571Z,2.57
2022-10-25T05:01:04.064Z,4.17
2022-10-25T05:03:31.486Z,4.57
2022-10-25T05:06:12.804Z,5.23
2022-10-25T05:08:41.026Z,3.17
2022-10-25T05:11:09.073Z,5.63
2022-10-25T05:13:37.658Z,4.23
2022-10-25T05:16:04.536Z,3.33
2022-10-25T05:18:32.866Z,2.70
2022-10-25T05:21:04.203Z,5.83
2022-10-25T05:23:31.999Z,6.03
2022-10-25T05:26:02.965Z,2.10
2022-10-25T05:28:29.836Z,5.60
2022-10-25T05:30:56.647Z,5.47
2022-10-25T05:33:23.274Z,5.67
2022-10-25T05:35:49.945Z,3.77
2022-10-25T05:38:16.568Z,8.73
2022-10-25T05:40:43.137Z,4.50
2022-10-25T05:43:09.721Z,6.97
2022-10-25T05:45:36.705Z,4.77
2022-10-25T05:48:03.390Z,5.80
2022-10-25T05:50:30.185Z,4.30
2022-10-25T05:52:57.030Z,6.03
2022-10-25T05:55:26.003Z,4.03
2022-10-25T05:57:52.700Z,5.70
2022-10-25T06:00:19.458Z,4.00
2022-10-25T06:02:46.271Z,5.80
2022-10-25T06:05:13.198Z,7.23
2022-10-25T06:07:39.794Z,7.07
2022-10-25T06:10:10.437Z,5.07
2022-10-25T06:12:37.449Z,4.77
2022-10-25T06:15:04.447Z,5.33
2022-10-25T06:17:31.063Z,5.37
2022-10-25T06:19:57.644Z,2.77
2022-10-25T06:22:24.298Z,8.00
2022-10-25T06:24:50.901Z,6.23
2022-10-25T06:27:17.503Z,6.70
2022-10-25T06:29:44.136Z,5.70
2022-10-25T06:32:10.739Z,7.80
2022-10-25T06:34:37.388Z,4.57
2022-10-25T06:37:04.001Z,10.87
2022-10-25T06:39:30.607Z,3.63
2022-10-25T06:41:57.244Z,6.13
2022-10-25T06:44:23.838Z,4.43
2022-10-25T06:47:15.998Z,5.23
2022-10-25T06:49:37.188Z,9.80
2022-10-25T06:52:03.768Z,8.43
2022-10-25T06:54:30.456Z,10.50
2022-10-25T06:56:58.423Z,11.57
2022-10-25T06:59:28.802Z,6.23
2022-10-25T07:01:57.572Z,5.33
2022-10-25T07:04:24.687Z,6.60
2022-10-25T07:06:55.136Z,5.93
2022-10-25T07:09:26.566Z,3.97
2022-10-25T07:11:53.201Z,7.03
2022-10-25T07:14:19.822Z,6.97
2022-10-25T07:16:46.402Z,10.10
2022-10-25T07:19:12.978Z,5.70
2022-10-25T07:21:39.588Z,6.63
2022-10-25T07:24:06.489Z,9.87
2022-10-25T07:26:34.869Z,7.47
2022-10-25T07:29:02.949Z,6.70
2022-10-25T07:31:40.902Z,4.90
2022-10-25T07:34:07.887Z,5.33
2022-10-25T07:36:34.962Z,5.63
2022-10-25T07:39:02.047Z,5.00
2022-10-25T07:41:28.799Z,7.50
2022-10-25T07:43:56.102Z,5.47
2022-10-25T07:46:23.175Z,4.87
2022-10-25T07:48:49.965Z,5.20
2022-10-25T07:51:17.610Z,5.33
2022-10-25T07:53:44.546Z,9.50
2022-10-25T07:56:17.375Z,13.47
2022-10-25T07:58:48.272Z,39.03
2022-10-25T08:01:20.927Z,30.77
2022-10-25T08:03:47.628Z,26.70
2022-10-25T08:06:14.260Z,49.00
2022-10-25T08:08:40.992Z,14.77
2022-10-25T08:11:08.094Z,11.20
2022-10-25T08:13:38.499Z,13.67
2022-10-25T08:16:06.263Z,20.80
2022-10-25T08:18:34.013Z,48.93
2022-10-25T08:21:03.343Z,19.47
2022-10-25T08:23:31.944Z,8.47
2022-10-25T08:25:59.377Z,15.73
2022-10-25T08:28:26.296Z,8.80
2022-10-25T08:30:55.195Z,6.13
2022-10-25T08:33:21.850Z,10.20
2022-10-25T08:35:48.478Z,6.73
2022-10-25T08:38:15.166Z,7.43
2022-10-25T08:40:51.321Z,4.50
2022-10-25T08:43:44.760Z,7.57
2022-10-25T08:46:16.237Z,8.70
2022-10-25T08:48:50.064Z,7.07
2022-10-25T08:51:30.874Z,4.97
2022-10-25T08:54:05.074Z,5.70
2022-10-25T08:56:32.978Z,9.83
2022-10-25T08:59:04.786Z,4.80
2022-10-25T09:01:44.717Z,7.93
2022-10-25T09:04:11.519Z,5.70
2022-10-25T09:07:29.082Z,7.90
2022-10-25T09:10:26.462Z,7.37
2022-10-25T09:13:20.251Z,21.47
2022-10-25T09:15:59.307Z,6.97
2022-10-25T09:18:39.692Z,26.97
2022-10-25T09:21:22.241Z,4.97
2022-10-25T09:24:22.884Z,9.03
2022-10-25T09:27:17.598Z,20.93
2022-10-25T09:30:05.065Z,19.07
2022-10-25T09:32:43.045Z,15.63
2022-10-25T09:35:16.531Z,9.50
2022-10-25T09:37:48.901Z,6.67
2022-10-25T09:40:20.273Z,47.60
2022-10-25T09:42:53.774Z,10.17
2022-10-25T09:45:29.176Z,43.13
2022-10-25T09:48:10.922Z,29.77
2022-10-25T09:50:44.110Z,22.60
2022-10-25T09:53:13.194Z,15.77
2022-10-25T09:55:56.112Z,40.80
2022-10-25T09:58:29.310Z,21.47
2022-10-25T10:01:03.880Z,7.17
2022-10-25T10:03:35.355Z,11.37
2022-10-25T10:06:08.395Z,8.77
2022-10-25T10:08:37.539Z,8.07
2022-10-25T10:11:05.675Z,9.33
2022-10-25T10:13:46.481Z,9.77
2022-10-25T10:16:22.838Z,6.93
2022-10-25T10:18:50.664Z,5.37
2022-10-25T10:21:21.478Z,9.23
2022-10-25T10:24:06.248Z,14.77
2022-10-25T10:26:37.189Z,3.60
2022-10-25T10:29:27.357Z,8.17
2022-10-25T10:31:56.461Z,8.30
2022-10-25T10:34:44.783Z,6.57
2022-10-25T10:37:26.022Z,4.07
2022-10-25T10:39:56.423Z,10.57
2022-10-25T10:42:42.899Z,7.90
2022-10-25T10:45:18.597Z,4.30
2022-10-25T10:47:51.765Z,7.97
2022-10-25T10:50:29.447Z,5.00
2022-10-25T10:53:06.556Z,7.07
2022-10-25T10:55:50.029Z,7.87
2022-10-25T10:58:23.785Z,47.40
2022-10-25T11:00:56.084Z,42.30
2022-10-25T11:03:48.913Z,10.57
2022-10-25T11:06:35.168Z,8.87
2022-10-25T11:09:18.095Z,4.13
2022-10-25T11:12:07.825Z,8.27
2022-10-25T11:14:34.558Z,6.03
2022-10-25T11:17:19.231Z,10.07
2022-10-25T11:20:00.056Z,46.83
2022-10-25T11:22:53.599Z,16.40
2022-10-25T11:25:46.581Z,20.50
2022-10-25T11:28:19.092Z,19.10
2022-10-25T11:30:52.607Z,18.20
2022-10-25T11:33:52.934Z,12.60
2022-10-25T11:36:56.439Z,8.90
2022-10-25T11:39:33.807Z,12.97
2022-10-25T11:45:21.129Z,5.77
2022-10-25T11:47:57.030Z,6.47
2022-10-25T11:50:32.689Z,8.13
2022-10-25T11:53:25.563Z,16.40
2022-10-25T11:56:34.618Z,12.13
2022-10-25T11:59:20.973Z,8.40
2022-10-25T12:02:32.753Z,7.20
2022-10-25T12:05:28.541Z,6.63
2022-10-25T12:08:08.052Z,4.63
2022-10-25T12:10:44.182Z,4.80
2022-10-25T12:13:24.820Z,8.40
2022-10-25T12:15:55.212Z,3.43
2022-10-25T12:18:36.464Z,5.60
2022-10-25T12:21:04.376Z,7.40
2022-10-25T12:23:41.245Z,6.60
2022-10-25T12:26:19.953Z,7.00
2022-10-25T12:28:49.090Z,7.17
2022-10-25T12:31:26.267Z,5.00
2022-10-25T12:34:01.649Z,5.63
2022-10-25T12:36:36.038Z,8.40
2022-10-25T12:39:11.156Z,7.50
2022-10-25T12:41:40.473Z,7.07
2022-10-25T12:44:28.623Z,7.57
2022-10-25T12:47:11.897Z,7.20
2022-10-25T12:50:01.195Z,7.07
2022-10-25T12:52:33.681Z,6.33
2022-10-25T12:55:33.223Z,10.20
2022-10-25T12:58:33.049Z,4.10
2022-10-25T13:01:38.386Z,11.93
2022-10-25T13:04:39.644Z,31.90
2022-10-25T13:07:08.889Z,23.47
2022-10-25T13:09:39.990Z,24.77
2022-10-25T13:12:16.209Z,13.53
2022-10-25T13:14:56.114Z,10.50
2022-10-25T13:17:23.923Z,8.83
2022-10-25T13:20:14.669Z,6.93
2022-10-25T13:22:42.795Z,36.53
2022-10-25T13:25:12.398Z,14.83
2022-10-25T13:28:00.153Z,28.47
2022-10-25T13:30:32.081Z,29.47
2022-10-25T13:33:18.802Z,23.43
2022-10-25T13:35:48.373Z,28.00
2022-10-25T13:38:39.370Z,25.23
2022-10-25T13:41:18.647Z,11.37
2022-10-25T13:44:03.663Z,13.63
2022-10-25T13:46:41.460Z,7.60
2022-10-25T13:49:38.235Z,5.17
2022-10-25T13:52:23.575Z,5.70
2022-10-25T13:54:54.456Z,8.33
2022-10-25T13:57:49.798Z,4.13
2022-10-25T14:00:47.841Z,6.77
2022-10-25T14:03:28.181Z,7.93
2022-10-25T14:06:00.772Z,9.50
2022-10-25T14:08:31.887Z,2.87
2022-10-25T14:11:11.020Z,10.03
2022-10-25T14:14:16.379Z,6.27
2022-10-25T14:17:03.573Z,6.07
2022-10-25T14:19:37.835Z,7.80
2022-10-25T14:22:15.465Z,11.30
2022-10-25T14:24:44.744Z,9.97
2022-10-25T14:27:35.424Z,16.10
2022-10-25T14:30:23.615Z,6.27
2022-10-25T14:32:51.942Z,6.37
2022-10-25T14:35:19.055Z,4.00
2022-10-25T14:37:45.947Z,5.00
2022-10-25T14:40:21.751Z,6.13
2022-10-25T14:42:49.240Z,7.10
2022-10-25T14:45:23.142Z,7.13
2022-10-25T14:47:50.819Z,44.63
2022-10-25T14:50:23.843Z,13.57
2022-10-25T14:52:52.071Z,17.87
2022-10-25T14:55:27.515Z,15.10
2022-10-25T14:57:54.818Z,11.93
2022-10-25T15:00:26.773Z,11.90
2022-10-25T15:03:01.781Z,12.50
2022-10-25T15:05:30.132Z,15.63
2022-10-25T15:08:00.791Z,16.37
2022-10-25T15:10:43.119Z,7.47
2022-10-25T15:13:33.032Z,7.63
2022-10-25T15:16:03.656Z,4.00
2022-10-25T15:18:37.290Z,8.33
2022-10-25T15:21:11.384Z,6.73
2022-10-25T15:23:40.241Z,7.13
2022-10-25T15:26:21.610Z,3.93
2022-10-25T15:28:55.102Z,4.80
2022-10-25T15:31:25.150Z,9.77
2022-10-25T15:33:56.960Z,5.53
2022-10-25T15:36:26.384Z,4.47
2022-10-25T15:39:08.928Z,4.33
2022-10-25T15:41:37.052Z,4.53
2022-10-25T15:44:03.794Z,5.93
2022-10-25T15:46:38.053Z,5.70
2022-10-25T15:49:09.783Z,4.30
2022-10-25T15:51:39.928Z,3.23
2022-10-25T15:54:15.545Z,3.93
2022-10-25T15:56:42.774Z,5.70
2022-10-25T15:59:10.155Z,8.77
2022-10-25T16:01:41.018Z,4.57
2022-10-25T16:04:14.530Z,6.50
2022-10-25T16:06:41.838Z,10.53
2022-10-25T16:09:08.982Z,9.23
2022-10-25T16:11:43.740Z,10.40
2022-10-25T16:14:23.010Z,19.17
2022-10-25T16:16:51.677Z,17.00
2022-10-25T16:19:23.012Z,12.53
2022-10-25T16:21:49.842Z,9.37
2022-10-25T16:24:17.396Z,14.77
2022-10-25T16:26:47.665Z,7.30
2022-10-25T16:29:24.846Z,5.37
2022-10-25T16:31:54.038Z,7.93
2022-10-25T16:34:21.678Z,8.17
2022-10-25T16:36:50.346Z,6.50
2022-10-25T16:39:17.391Z,7.40
2022-10-25T16:41:48.284Z,8.90
2022-10-25T16:44:19.692Z,6.73
2022-10-25T16:46:46.738Z,6.33
2022-10-25T16:49:15.131Z,9.37
2022-10-25T16:51:44.366Z,9.47
2022-10-25T16:54:12.683Z,6.43
2022-10-25T16:56:41.379Z,8.37
2022-10-25T16:59:09.368Z,9.90
2022-10-25T17:01:41.273Z,8.77
2022-10-25T17:04:12.109Z,8.27
2022-10-25T17:06:49.268Z,9.50
2022-10-25T17:09:17.948Z,6.97
2022-10-25T17:11:45.854Z,5.93
2022-10-25T17:14:13.706Z,7.70
2022-10-25T17:16:43.343Z,8.32
2022-10-25T17:19:10.567Z,9.07
2022-10-25T17:21:37.509Z,10.13
2022-10-25T17:24:04.917Z,10.30
2022-10-25T17:26:31.505Z,17.00
2022-10-25T17:29:00.757Z,14.73
2022-10-25T17:31:28.262Z,12.23
2022-10-25T17:33:56.692Z,16.40
2022-10-25T17:36:23.259Z,15.77
2022-10-25T17:38:50.668Z,17.17
2022-10-25T17:41:17.984Z,15.33
2022-10-25T17:43:44.779Z,14.30
2022-10-25T17:46:23.729Z,25.63
2022-10-25T17:48:55.321Z,13.90
2022-10-25T17:51:23.216Z,10.97
2022-10-25T17:53:54.493Z,12.80
2022-10-25T17:56:23.288Z,12.87
2022-10-25T17:58:51.049Z,11.30
2022-10-25T18:01:22.318Z,10.77
2022-10-25T18:03:50.309Z,13.53
2022-10-25T18:06:20.261Z,14.70
2022-10-25T18:08:58.533Z,7.63
2022-10-25T18:11:30.023Z,7.87
2022-10-25T18:14:00.167Z,10.20
2022-10-25T18:16:31.196Z,12.20
2022-10-25T18:19:01.932Z,15.03
2022-10-25T18:21:34.418Z,14.53
2022-10-25T18:24:04.799Z,9.50
2022-10-25T18:26:35.100Z,15.47
2022-10-25T18:29:05.051Z,9.70
2022-10-25T18:31:31.787Z,9.07
2022-10-25T18:34:03.209Z,8.10
2022-10-25T18:36:30.802Z,6.77
2022-10-25T18:38:57.629Z,10.53
2022-10-25T18:41:27.969Z,6.70
2022-10-25T18:43:56.338Z,7.23
2022-10-25T18:46:24.605Z,6.63
2022-10-25T18:48:52.909Z,9.53
2022-10-25T18:51:21.859Z,9.17
2022-10-25T18:53:52.932Z,7.97
2022-10-25T18:56:22.040Z,7.90
2022-10-25T18:58:51.007Z,10.83
2022-10-25T19:01:20.945Z,10.33
2022-10-25T19:03:47.954Z,9.47
2022-10-25T19:06:16.586Z,6.77
2022-10-25T19:08:43.271Z,10.20
2022-10-25T19:11:12.585Z,8.17
2022-10-25T19:13:40.869Z,7.77
2022-10-25T19:16:09.343Z,7.77
2022-10-25T19:18:37.468Z,9.07
2022-10-25T19:21:07.652Z,8.33
2022-10-25T19:23:41.414Z,12.83
2022-10-25T19:26:12.375Z,5.73
2022-10-25T19:28:40.480Z,18.40
2022-10-25T19:31:12.623Z,8.67
2022-10-25T19:33:40.309Z,7.90
2022-10-25T19:36:10.673Z,10.73
2022-10-25T19:38:38.478Z,8.13
2022-10-25T19:41:08.389Z,8.93
2022-10-25T19:43:36.374Z,9.80
2022-10-25T19:46:06.190Z,6.47
2022-10-25T19:48:34.343Z,9.97
2022-10-25T19:51:06.207Z,13.17
2022-10-25T19:53:33.164Z,9.90
2022-10-25T19:56:15.223Z,9.10
2022-10-25T19:58:42.460Z,9.33
2022-10-25T20:01:21.211Z,9.03
2022-10-25T20:03:50.643Z,7.47
2022-10-25T20:06:24.650Z,10.23
2022-10-25T20:08:52.466Z,12.13
2022-10-25T20:11:19.819Z,10.23
2022-10-25T20:13:46.739Z,8.90
2022-10-25T20:16:14.527Z,7.85
2022-10-25T20:18:42.516Z,21.37
2022-10-25T20:21:12.271Z,11.93
2022-10-25T20:23:40.431Z,11.17
2022-10-25T20:26:19.629Z,12.00
2022-10-25T20:28:47.143Z,12.60
2022-10-25T20:31:15.074Z,35.80
2022-10-25T20:33:41.969Z,20.40
2022-10-25T20:36:11.027Z,21.07
2022-10-25T20:38:38.295Z,16.60
2022-10-25T20:41:13.155Z,23.03
2022-10-25T20:43:40.794Z,17.53
2022-10-25T20:46:08.223Z,31.60
2022-10-25T20:48:35.405Z,39.17
2022-10-25T20:51:05.353Z,34.83
2022-10-25T20:53:34.935Z,27.50
2022-10-25T20:56:01.799Z,24.93
2022-10-25T20:58:28.589Z,19.30
2022-10-25T21:00:57.510Z,15.00
2022-10-25T21:03:26.212Z,23.67
2022-10-25T21:05:54.286Z,8.73
2022-10-25T21:08:23.927Z,13.97
2022-10-25T21:11:01.916Z,34.13
2022-10-25T21:13:31.607Z,19.90
2022-10-25T21:15:58.486Z,20.93
2022-10-25T21:18:30.164Z,20.67
2022-10-25T21:21:01.335Z,15.43
2022-10-25T21:23:28.226Z,16.77
2022-10-25T21:26:11.219Z,12.30
2022-10-25T21:28:39.605Z,37.53
2022-10-25T21:31:09.509Z,23.50
2022-10-25T21:33:36.347Z,29.67
2022-10-25T21:36:04.150Z,24.93
2022-10-25T21:38:30.825Z,19.13
2022-10-25T21:41:12.131Z,35.07
2022-10-25T21:43:46.252Z,44.60
2022-10-25T21:46:14.149Z,50.60
2022-10-25T21:48:41.971Z,40.87
2022-10-25T21:51:08.662Z,37.10
2022-10-25T21:53:35.468Z,20.13
2022-10-25T21:56:23.205Z,10.57
2022-10-25T21:58:50.841Z,24.73
2022-10-25T22:01:22.878Z,28.50
2022-10-25T22:03:51.250Z,20.00
2022-10-25T22:06:21.402Z,17.40
2022-10-25T22:08:50.180Z,16.67
2022-10-25T22:11:23.089Z,18.97
2022-10-25T22:14:03.778Z,29.70
2022-10-25T22:16:32.177Z,30.00
2022-10-25T22:19:02.873Z,31.60
2022-10-25T22:21:32.594Z,31.77
2022-10-25T22:23:59.355Z,46.87
2022-10-25T22:26:26.311Z,33.47
2022-10-25T22:28:54.928Z,26.50
2022-10-25T22:31:22.304Z,27.13
2022-10-25T22:33:56.471Z,41.83
2022-10-25T22:36:25.965Z,19.07
2022-10-25T22:38:52.640Z,18.70
2022-10-25T22:41:22.227Z,17.43
2022-10-25T22:43:49.505Z,27.30
2022-10-25T22:46:24.063Z,23.10
2022-10-25T22:48:52.945Z,61.23
2022-10-25T22:51:20.336Z,44.60
2022-10-25T22:53:46.965Z,53.20
2022-10-25T22:56:14.770Z,40.17
2022-10-25T22:58:43.211Z,41.77
2022-10-25T23:01:19.162Z,31.67
2022-10-25T23:03:52.000Z,29.20
2022-10-25T23:06:26.884Z,35.67
2022-10-25T23:08:54.713Z,49.33
2022-10-25T23:11:24.027Z,36.83
2022-10-25T23:13:50.652Z,43.93
2022-10-25T23:16:17.799Z,37.27
2022-10-25T23:18:45.067Z,23.20
2022-10-25T23:21:23.268Z,19.80
2022-10-25T23:23:51.536Z,20.07
2022-10-25T23:26:29.581Z,15.80
2022-10-25T23:28:56.708Z,13.20
2022-10-25T23:31:24.353Z,16.37
2022-10-25T23:33:53.165Z,20.73
2022-10-25T23:36:21.502Z,24.97
2022-10-25T23:38:49.687Z,20.17
2022-10-25T23:41:21.115Z,19.10
2022-10-25T23:43:48.584Z,24.90
2022-10-25T23:46:16.741Z,19.87
2022-10-25T23:48:43.874Z,20.60
2022-10-25T23:51:13.277Z,15.67
2022-10-25T23:53:40.273Z,16.83
2022-10-25T23:56:09.521Z,23.47
2022-10-25T23:58:36.195Z,16.23
